Stations météo

réclame
Mon MeteoGroup
Besancon, France (7288): Température de l'air & dewpoint: 07.11.2019 22:00:00 - 13.11.2019 22:00:00 (CET)Besancon, France (7288): Température de l'air 5cm: 07.11.2019 22:00:00 - 13.11.2019 22:00:00 (CET)Besancon, France (7288): Température de l'air -20cm & Température de l'air -100cm: 07.11.2019 22:00:00 - 13.11.2019 22:00:00 (CET)Besancon, France (7288): Vitesse du vent & gusts: 07.11.2019 22:00:00 - 13.11.2019 22:00:00 (CET)Besancon, France (7288): Direction du vent: 07.11.2019 22:00:00 - 13.11.2019 22:00:00 (CET)Besancon, France (7288): reduced air pressure: 07.11.2019 22:00:00 - 13.11.2019 22:00:00 (CET)Besancon, France (7288): Ensoleillement: 07.11.2019 22:00:00 - 13.11.2019 22:00:00 (CET)Besancon, France (7288): Quantités de précipitations: 07.11.2019 22:00:00 - 13.11.2019 22:00:00 (CET)
Date & Time tt [°C] td [°C] tt 5cm [°C] tt -20cm [°C] tt -100cm [°C] ff [km/h] ff [knt] fx [km/h] fx [knt] dd ppp [hPa] sd [min] rr [mm]
13.11.2019 22:00:00 3,1 2,1 -1,1 9,1 12,9 0 0 8 5 N 1006,6 0 0,0
13.11.2019 21:00:00 4,2 3,0 1,9 9,1 12,9 0 0 11 6 N 1007,1 0 0,0
13.11.2019 20:00:00 5,1 3,1 3,9 9,0 12,9 6 3 15 8 SSW 1007,6 0 0,0
13.11.2019 19:00:00 5,1 3,3 4,4 9,1 12,9 5 3 15 8 SSW 1007,9 0 0,0
13.11.2019 18:00:00 5,1 3,3 4,4 9,0 12,9 4 2 14 8 SSW 1007,9 0 0,0
13.11.2019 17:00:00 5,1 3,6 4,6 9,0 12,9 5 3 14 8 SSW 1007,6 0 0,0
13.11.2019 16:00:00 5,1 3,6 4,6 9,0 12,9 8 4 21 12 SSW 1007,9 0 0,0
13.11.2019 15:00:00 5,0 3,5 5,0 8,9 12,9 7 4 23 13 SW 1007,8 0 0,0
13.11.2019 14:00:00 5,4 3,1 6,0 8,9 13,0 10 5 28 15 SW 1007,6 0 0,0
13.11.2019 13:00:00 5,4 2,9 5,9 8,9 13,0 13 7 28 15 SW 1007,4 3 0,0
13.11.2019 12:00:00 4,7 2,6 5,1 8,9 13,0 12 6 26 14 SW 1007,9 0 0,0
13.11.2019 11:00:00 5,1 2,6 5,8 8,9 13,0 10 6 23 13 SW 1007,6 8 0,0
13.11.2019 10:00:00 4,5 2,4 3,8 8,9 13,0 8 4 18 10 SW 1007,5 31 0,0
13.11.2019 09:00:00 3,3 2,4 2,6 8,9 13,0 7 4 16 9 SSW 1007,3 0 0,0
13.11.2019 08:00:00 2,7 2,6 2,7 8,9 13,0 6 3 15 8 SW 1007,2 0 0,0
13.11.2019 07:00:00 2,6 2,6 2,7 8,9 13,0 6 3 12 7 SW 1006,5 0 0,0
13.11.2019 06:00:00 2,9 2,9 2,8 9,0 13,0 4 2 12 7 SW 1006,1 0 0,0
13.11.2019 05:00:00 2,9 2,9 2,6 9,0 13,1 5 3 13 7 WSW 1005,9 0 0,0
13.11.2019 04:00:00 3,4 3,1 1,7 9,0 13,0 4 2 11 6 WSW 1005,9 0 0,0
13.11.2019 03:00:00 3,7 3,4 3,3 9,0 13,1 5 3 10 5 WSW 1005,8 0 0,0
13.11.2019 02:00:00 3,5 3,4 1,9 9,1 13,1 0 0 6 4 N 1005,7 0 0,0
13.11.2019 01:00:00 2,9 2,8 -0,5 9,1 13,1 0 0 3 2 N 1005,8 0 0,0
13.11.2019 00:00:00 3,3 3,0 -0,5 9,1 13,1 0 0 4 2 N 1005,5 0 0,0
12.11.2019 23:00:00 4,0 3,7 3,4 9,1 13,1 0 0 7 4 N 1005,3 0 0,8
12.11.2019 22:00:00 4,3 3,6 2,3 9,1 13,1 5 3 17 9 WNW 1005,8 0 1,6
12.11.2019 21:00:00 4,0 2,8 0,3 9,1 13,2 0 0 14 7 N 1005,8 0 0,0
12.11.2019 20:00:00 4,9 2,9 2,1 9,1 13,2 4 2 11 6 SSW 1006,0 0 0,0
12.11.2019 19:00:00 6,3 3,5 4,6 9,1 13,2 4 2 16 8 SSW 1006,3 0 0,0
12.11.2019 18:00:00 6,5 3,5 4,9 9,0 13,2 3 2 12 7 SSW 1006,7 0 0,0
12.11.2019 17:00:00 7,1 3,3 6,0 9,0 13,2 6 4 16 9 SSW 1006,8 4 0,0
12.11.2019 16:00:00 7,5 3,2 6,9 9,0 13,2 6 4 23 12 SW 1006,7 17 0,0
12.11.2019 15:00:00 8,0 3,3 9,5 9,0 13,2 11 6 31 17 SW 1006,8 26 0,0
12.11.2019 14:00:00 8,0 3,3 9,2 8,9 13,2 14 8 32 17 SW 1007,2 12 0,0
12.11.2019 13:00:00 7,3 3,2 7,9 8,9 13,2 13 7 27 14 SW 1008,2 1 0,0
12.11.2019 12:00:00 7,1 3,0 8,1 8,9 13,3 12 7 29 16 SW 1009,1 14 0,0
12.11.2019 11:00:00 6,7 2,6 6,5 8,9 13,3 15 8 31 17 SSW 1009,6 43 0,0
12.11.2019 10:00:00 5,9 3,1 4,6 9,0 13,3 8 4 22 12 SSW 1010,3 8 0,0
12.11.2019 09:00:00 4,4 2,9 1,8 9,0 13,3 5 3 14 7 SSW 1010,8 0 0,0
12.11.2019 08:00:00 3,6 2,6 1,2 9,0 13,3 4 2 14 7 SSW 1011,0 0 0,0
12.11.2019 07:00:00 3,3 2,6 0,5 9,0 13,3 4 2 22 12 SSW 1011,1 0 0,0
12.11.2019 06:00:00 3,9 2,9 2,2 9,1 13,3 10 6 22 12 SSW 1011,3 0 0,0
12.11.2019 05:00:00 3,7 2,8 1,8 9,1 13,3 9 5 22 12 SSW 1011,7 0 0,0
12.11.2019 04:00:00 4,0 3,3 2,9 9,1 13,3 11 6 24 13 SW 1012,0 0 0,0
12.11.2019 03:00:00 4,3 3,7 0,2 9,2 13,4 11 6 19 10 SW 1012,3 0 0,0
12.11.2019 02:00:00 3,0 2,6 -0,6 9,2 13,4 3 1 12 7 SSW 1012,4 0 0,0
12.11.2019 01:00:00 3,7 2,8 0,5 9,2 13,4 8 4 19 10 SSW 1012,3 0 0,0
12.11.2019 00:00:00 4,4 3,5 2,6 9,2 13,4 7 4 21 11 SW 1012,2 0 0,0
11.11.2019 23:00:00 4,8 4,4 3,0 9,2 13,4 10 6 21 12 SW 1011,5 0 0,0
11.11.2019 22:00:00 4,9 4,6 3,3 9,2 13,4 8 4 22 12 SSW 1010,9 0 0,0
11.11.2019 21:00:00 5,6 4,7 4,9 9,2 13,4 13 7 29 16 SW 1010,2 0 0,2
11.11.2019 20:00:00 6,0 4,2 4,9 9,2 13,4 12 7 25 13 SW 1009,2 0 0,2
11.11.2019 19:00:00 6,1 3,8 4,7 9,2 13,4 7 4 24 13 SSW 1008,8 0 0,6
11.11.2019 18:00:00 6,3 3,3 4,6 9,1 13,4 4 2 29 16 SSW 1008,5 0 0,2
11.11.2019 17:00:00 7,4 1,5 6,0 9,0 13,4 4 2 23 12 SSW 1008,1 30 0,0
11.11.2019 16:00:00 7,8 2,5 7,9 9,0 13,5 6 3 19 10 S 1008,0 11 0,0
11.11.2019 15:00:00 7,7 3,0 9,3 9,0 13,5 7 4 21 11 SSW 1008,8 0 0,0
11.11.2019 14:00:00 7,2 4,0 9,4 9,0 13,5 8 4 19 10 WSW 1009,8 7 0,0
11.11.2019 13:00:00 5,8 3,3 6,5 9,0 13,5 4 2 16 8 SSW 1010,5 0 0,0
11.11.2019 12:00:00 3,7 3,0 6,1 9,0 13,5 3 2 8 5 SSE 1011,8 0 0,0
11.11.2019 11:00:00 2,6 2,3 4,1 9,1 13,5 0 0 4 2 N 1012,9 0 0,0
11.11.2019 10:00:00 1,3 1,3 1,6 9,1 13,5 0 0 4 2 N 1013,8 0 0,0
11.11.2019 09:00:00 -0,1 -0,1 -1,9 9,2 13,5 0 0 5 3 N 1014,6 21 0,0
11.11.2019 08:00:00 -1,5 -1,6 -3,9 9,3 13,5 0 0 7 4 N 1015,1 1 0,0
11.11.2019 07:00:00 -1,5 -1,5 -4,8 9,4 13,5 2 1 4 2 N 1015,3 0 0,0
11.11.2019 06:00:00 -1,6 -1,7 -5,1 9,5 13,6 0 0 4 2 N 1015,8 0 0,0
11.11.2019 05:00:00 -1,5 -1,8 -5,1 9,5 13,5 0 0 4 2 N 1016,0 0 0,0
11.11.2019 04:00:00 -0,9 -0,9 -4,9 9,6 13,6 0 0 4 2 N 1016,7 0 0,0
11.11.2019 03:00:00 -0,4 -0,4 -4,3 9,7 13,6 2 1 8 4 NE 1015,9 0 0,0
11.11.2019 02:00:00 -0,7 -0,8 -4,4 9,8 13,6 3 2 5 3 NNE 1016,5 0 0,0
11.11.2019 01:00:00 0,1 0,1 -4,2 9,9 13,6 0 0 4 2 N 1017,0 0 0,0
11.11.2019 00:00:00 0,2 -0,1 -3,8 9,9 13,6 0 0 4 2 N 1017,0 0 0,0
10.11.2019 23:00:00 0,9 0,8 -3,4 9,9 13,6 0 0 4 2 N 1016,3 0 0,0
10.11.2019 22:00:00 1,6 1,3 -2,8 10,0 13,6 0 0 5 3 N 1016,4 0 0,0
10.11.2019 21:00:00 1,8 1,2 -2,5 10,0 13,6 0 0 4 2 N 1016,3 0 0,0
10.11.2019 20:00:00 2,9 2,3 -2,0 10,1 13,7 2 1 4 2 NNE 1016,5 0 0,0
10.11.2019 19:00:00 3,7 3,0 -1,2 10,0 13,7 0 0 4 2 N 1016,0 0 0,0
10.11.2019 18:00:00 5,1 3,8 1,4 10,0 13,6 0 0 3 2 N 1015,2 0 0,0
10.11.2019 17:00:00 6,2 3,9 3,1 9,9 13,7 0 0 4 2 N 1014,5 9 0,0
10.11.2019 16:00:00 7,8 4,0 8,6 9,9 13,7 2 1 8 4 NNW 1013,5 0 0,0
10.11.2019 15:00:00 8,1 3,2 9,5 9,9 13,7 4 2 11 6 W 1012,9 0 0,0
10.11.2019 14:00:00 8,1 3,2 9,8 9,8 13,7 5 3 12 6 WSW 1012,3 0 0,0
10.11.2019 13:00:00 8,2 3,4 8,0 9,8 13,7 2 1 14 7 S 1011,8 0 0,0
10.11.2019 12:00:00 7,7 3,5 8,1 9,8 13,7 4 2 16 9 SW 1011,7 0 0,0
10.11.2019 11:00:00 7,6 3,8 7,6 9,8 13,7 6 4 14 8 SW 1011,3 1 0,0
10.11.2019 10:00:00 6,7 3,7 6,4 9,8 13,7 7 4 15 8 SW 1010,8 3 0,0
10.11.2019 09:00:00 5,5 4,1 4,8 9,8 13,7 0 0 4 2 N 1010,3 0 0,0
10.11.2019 08:00:00 4,7 3,5 4,2 9,9 13,7 0 0 3 2 N 1009,8 0 0,0
10.11.2019 07:00:00 4,3 3,1 3,8 9,9 13,8 0 0 7 4 N 1008,9 0 0,0
10.11.2019 06:00:00 4,0 2,8 3,0 10,0 13,7 0 0 4 2 N 1008,5 0 0,0
10.11.2019 05:00:00 3,9 1,9 1,0 10,1 13,8 2 1 14 7 WSW 1008,4 0 0,0
10.11.2019 04:00:00 2,5 1,2 0,0 10,1 13,8 0 0 8 4 N 1007,8 0 0,0
10.11.2019 03:00:00 2,0 0,7 -3,0 10,2 13,8 4 2 9 5 NNE 1007,7 0 0,0
10.11.2019 02:00:00 0,9 0,9 -3,6 10,3 13,8 0 0 8 4 N 1008,0 0 0,0
10.11.2019 01:00:00 0,6 0,3 -4,3 10,4 13,8 5 3 6 4 NNE 1008,4 0 0,0
10.11.2019 00:00:00 0,4 0,3 -4,1 10,4 13,8 3 1 5 3 NNE 1009,1 0 0,0
09.11.2019 23:00:00 1,2 1,2 -3,5 10,5 13,8 0 0 4 2 N 1009,3 0 0,0
09.11.2019 22:00:00 1,6 1,3 -3,3 10,6 13,8 0 0 5 3 N 1009,5 0 0,0
09.11.2019 21:00:00 1,8 1,5 -2,9 10,6 13,9 3 2 5 3 NNE 1009,7 0 0,0
09.11.2019 20:00:00 2,7 2,3 -2,1 10,6 13,8 3 2 5 3 NNE 1010,1 0 0,0
09.11.2019 19:00:00 3,8 3,1 -1,5 10,6 13,9 2 1 4 2 NNE 1010,3 0 0,0
09.11.2019 18:00:00 5,4 3,6 0,3 10,6 13,9 0 0 4 2 N 1010,4 0 0,0
09.11.2019 17:00:00 6,9 3,3 3,3 10,5 13,9 0 0 12 6 N 1010,6 16 0,0
09.11.2019 16:00:00 9,5 3,2 12,2 10,5 13,8 4 2 11 6 SSW 1010,8 60 0,0
09.11.2019 15:00:00 8,9 3,3 9,8 10,4 13,9 6 4 13 7 SW 1011,3 31 0,0
09.11.2019 14:00:00 8,2 3,8 10,3 10,4 13,9 3 2 13 7 W 1011,9 28 0,0
09.11.2019 13:00:00 8,6 4,4 10,9 10,4 13,9 6 3 15 8 WSW 1012,3 41 0,0
09.11.2019 12:00:00 7,9 4,5 11,4 10,4 13,9 5 3 17 9 SW 1013,0 42 0,0
09.11.2019 11:00:00 7,2 4,7 12,2 10,4 13,9 6 4 13 7 SW 1013,7 54 0,0
09.11.2019 10:00:00 5,4 4,2 6,4 10,5 13,9 4 2 8 5 SW 1013,8 33 0,0
09.11.2019 09:00:00 3,7 3,7 2,0 10,5 13,9 0 0 2 1 N 1014,1 2 0,0
09.11.2019 08:00:00 2,8 2,7 2,0 10,6 13,9 0 0 4 2 N 1014,0 0 0,0
09.11.2019 07:00:00 2,8 2,7 2,3 10,6 13,9 0 0 5 3 N 1013,6 0 0,0
09.11.2019 06:00:00 2,7 2,6 1,7 10,7 14,0 0 0 4 2 N 1013,3 0 0,0
09.11.2019 05:00:00 2,1 2,1 0,0 10,8 13,9 0 0 5 3 N 1012,9 0 0,0
09.11.2019 04:00:00 1,6 1,6 -1,2 10,9 14,0 0 0 3 1 N 1012,2 0 0,0
09.11.2019 03:00:00 1,0 0,9 -3,2 11,0 14,0 0 0 3 2 N 1012,2 0 0,0
09.11.2019 02:00:00 1,4 1,1 -3,0 11,0 14,0 0 0 2 1 N 1011,6 0 0,0
09.11.2019 01:00:00 2,2 2,1 -2,4 11,1 14,0 0 0 0 0 N 1011,2 0 0,0
09.11.2019 00:00:00 2,4 2,3 -2,4 11,1 14,0 0 0 5 3 N 1010,7 0 0,0
08.11.2019 23:00:00 2,8 2,5 -2,2 11,2 14,0 0 0 3 2 N 1010,4 0 0,0
08.11.2019 22:00:00 3,3 2,9 -1,5 11,3 14,0 0 0 3 2 N 1009,8 0 0,0
08.11.2019 21:00:00 3,7 3,3 -0,8 11,3 14,0 0 0 10 5 N 1008,9 0 0,0
08.11.2019 20:00:00 4,8 4,1 0,9 11,3 14,0 0 0 5 3 N 1008,2 0 0,0
08.11.2019 19:00:00 5,5 4,3 1,6 11,3 14,0 0 0 10 6 N 1007,7 0 0,0
08.11.2019 18:00:00 6,1 4,6 1,7 11,3 14,0 2 1 7 4 NNE 1006,9 0 0,0
08.11.2019 17:00:00 8,4 5,5 6,5 11,2 14,0 4 2 15 8 NNE 1005,9 44 0,0
08.11.2019 16:00:00 9,4 5,0 9,8 11,1 14,1 6 3 12 7 N 1005,0 25 0,0
08.11.2019 15:00:00 9,6 5,6 13,1 11,0 14,0 6 3 10 6 NNW 1004,7 19 0,0
08.11.2019 14:00:00 10,2 4,6 14,9 11,1 14,1 3 1 8 4 N 1004,3 44 0,0
08.11.2019 13:00:00 9,7 5,3 13,6 11,0 14,1 0 0 8 4 N 1004,1 39 0,0
08.11.2019 12:00:00 8,5 5,1 12,4 11,1 14,1 0 0 5 3 N 1004,6 11 0,0
08.11.2019 11:00:00 7,3 5,8 9,1 11,1 14,1 0 0 4 2 N 1005,1 0 0,0
08.11.2019 10:00:00 6,0 5,0 6,3 11,1 14,1 2 1 5 3 NNE 1005,1 0 0,0
08.11.2019 09:00:00 5,2 5,1 3,0 11,2 14,1 0 0 3 2 N 1005,0 0 0,0
08.11.2019 08:00:00 5,0 4,7 4,4 11,2 14,1 0 0 6 4 N 1004,8 0 0,8
08.11.2019 07:00:00 5,1 4,8 5,0 11,2 14,1 0 0 5 3 N 1004,7 0 0,0
08.11.2019 06:00:00 5,1 4,8 4,9 11,3 14,1 0 0 6 3 N 1004,6 0 0,0
08.11.2019 05:00:00 5,1 4,5 5,0 11,3 14,1 3 1 6 3 NNE 1004,8 0 0,4
08.11.2019 04:00:00 5,0 4,1 4,6 11,4 14,1 0 0 5 3 N 1004,8 0 0,0
08.11.2019 03:00:00 4,8 3,8 3,7 11,4 14,1 2 1 5 3 NNE 1004,9 0 0,0
08.11.2019 02:00:00 5,0 3,7 3,5 11,5 14,2 0 0 4 2 N 1005,1 0 0,0
08.11.2019 01:00:00 5,4 3,4 2,6 11,5 14,1 0 0 14 8 N 1005,3 0 0,0
08.11.2019 00:00:00 4,5 3,3 1,0 11,6 14,2 0 0 4 2 N 1005,8 0 0,0
07.11.2019 23:00:00 4,0 3,1 -0,1 11,6 14,2 0 0 2 1 N 1005,8 0 0,0
07.11.2019 22:00:00 4,8 3,3 1,4 11,7 14,2 0 0 5 3 N 1005,7 0 0,0

tt = Température de l'air
td = dewpoint
tt 5cm = Température de l'air 5cm
tt -20cm = Température de l'air -20cm
tt -100cm = Température de l'air -100cm
ff = Vitesse du vent
fx = gusts
dd = Direction du vent
ppp = reduced air pressure
sd = Ensoleillement
rr = Quantités de précipitations

stations d'obs. à proximité